Menu Close Menu
Station Historical Data
Daily Summary for November 24, 2017 Units:  Metric    English   Both
« Previous Day
Next Day »
Daily Weekly Monthly Yearly Custom
  High: Low: Average:
Temperature: 16.8 °C 2.3 °C 8.6 °C
Dew Point: 6.5 °C 0.9 °C 3.8 °C
Humidity: 93% 47% 75%
Wind Speed: 5.6km/h 0km/h 0.8km/h
Wind Gust: 5.6km/h - -
Wind- - SW
Pressure: 1019.2 hPa 1015.1 hPa -
Precipitation: 0 mm    
Historical Graphs
 
 
Tabular Data for November 24, 2017
Time Temperature Dew Point Pressure Wind Wind Speed Wind Gust Humidity Rainfall Rate (Hourly) solar Conditions
00:03 4.5 °C 2.7 °C 1018.5 hPa Calm     88% 0 mm WeatherDisplay:10.37 W/m2 CLR
00:08 4.4 °C 2.6 °C 1018.5 hPa Calm     88% 0 mm WeatherDisplay:10.37 W/m2 CLR
00:13 4.4 °C 2.6 °C 1018.5 hPa Calm     88% 0 mm WeatherDisplay:10.37 W/m2 CLR
00:14 4.4 °C 2.6 °C 1018.5 hPa Calm     88% 0 mm WeatherDisplay:10.37 W/m2 CLR
00:19 4.4 °C 2.6 °C 1018.5 hPa Calm     88% 0 mm WeatherDisplay:10.37 W/m2 CLR
00:24 4.4 °C 2.8 °C 1018.5 hPa Calm     89% 0 mm WeatherDisplay:10.37 W/m2 CLR
00:30 4.6 °C 2.9 °C 1018.5 hPa Calm     89% 0 mm WeatherDisplay:10.37 W/m2 CLR
00:45 4.3 °C 2.5 °C 1018.2 hPa Calm     88% 0 mm WeatherDisplay:10.37 W/m2 CLR
00:50 4.3 °C 2.6 °C 1018.2 hPa Calm     89% 0 mm WeatherDisplay:10.37 W/m2 CLR
00:55 4.2 °C 2.4 °C 1018.2 hPa Calm     88% 0 mm WeatherDisplay:10.37 W/m2 CLR
01:00 4.1 °C 2.3 °C 1018.2 hPa Calm     88% 0 mm WeatherDisplay:10.37 W/m2 CLR
01:10 3.9 °C 2.3 °C 1018.2 hPa Calm     89% 0 mm WeatherDisplay:10.37 W/m2 CLR
01:15 3.9 °C 2.3 °C 1018.5 hPa Calm     89% 0 mm WeatherDisplay:10.37 W/m2 CLR
01:31 3.8 °C 2.2 °C 1018.2 hPa Calm     89% 0 mm WeatherDisplay:10.37 W/m2 CLR
01:41 3.7 °C 2.2 °C 1018.2 hPa Calm     90% 0 mm WeatherDisplay:10.37 W/m2 CLR
01:46 3.7 °C 2.2 °C 1018.2 hPa Calm     90% 0 mm WeatherDisplay:10.37 W/m2 CLR
01:51 3.6 °C 1.9 °C 1018.2 hPa Calm     89% 0 mm WeatherDisplay:10.37 W/m2 CLR
02:01 3.5 °C 2 °C 1018.2 hPa Calm     90% 0 mm WeatherDisplay:10.37 W/m2 CLR
02:08 3.5 °C 2 °C 1018.2 hPa Calm     90% 0 mm WeatherDisplay:10.37 W/m2 CLR
02:13 3.4 °C 1.9 °C 1018.2 hPa Calm     90% 0 mm WeatherDisplay:10.37 W/m2 CLR
02:18 3.5 °C 2 °C 1018.2 hPa Calm     90% 0 mm WeatherDisplay:10.37 W/m2 CLR
02:28 3.5 °C 2 °C 1018.2 hPa Calm     90% 0 mm WeatherDisplay:10.37 W/m2 CLR
02:39 3.4 °C 1.9 °C 1018.2 hPa Calm     90% 0 mm WeatherDisplay:10.37 W/m2 CLR
02:44 3.3 °C 1.8 °C 1018.2 hPa Calm     90% 0 mm WeatherDisplay:10.37 W/m2 CLR
02:54 3.3 °C 1.8 °C 1018.2 hPa Calm     90% 0 mm WeatherDisplay:10.37 W/m2 CLR
02:59 3.2 °C 1.7 °C 1018.2 hPa Calm     90% 0 mm WeatherDisplay:10.37 W/m2 CLR
03:09 3.2 °C 1.9 °C 1018.2 hPa Calm     91% 0 mm WeatherDisplay:10.37 W/m2 CLR
03:14 3.3 °C 1.9 °C 1018.2 hPa Calm     91% 0 mm WeatherDisplay:10.37 W/m2 CLR
03:19 3.3 °C 1.9 °C 1018.2 hPa Calm     91% 0 mm WeatherDisplay:10.37 W/m2 CLR
03:24 3.2 °C 1.7 °C 1018.2 hPa Calm     90% 0 mm WeatherDisplay:10.37 W/m2 CLR
03:29 3.1 °C 1.6 °C 1018.2 hPa Calm     90% 0 mm WeatherDisplay:10.37 W/m2 CLR
03:34 3.1 °C 1.6 °C 1018.2 hPa Calm     90% 0 mm WeatherDisplay:10.37 W/m2 CLR
03:40 3.1 °C 1.6 °C 1018.2 hPa Calm     90% 0 mm WeatherDisplay:10.37 W/m2 CLR
03:45 3 °C 1.5 °C 1018.2 hPa Calm     90% 0 mm WeatherDisplay:10.37 W/m2 CLR
04:05 3.2 °C 1.8 °C 1018.2 hPa Calm     91% 0 mm WeatherDisplay:10.37 W/m2 CLR
04:10 3.2 °C 1.8 °C 1018.2 hPa Calm     91% 0 mm WeatherDisplay:10.37 W/m2 CLR
04:15 3.2 °C 1.8 °C 1018.2 hPa Calm     91% 0 mm WeatherDisplay:10.37 W/m2 CLR
04:20 3.1 °C 1.8 °C 1018.2 hPa Calm     91% 0 mm WeatherDisplay:10.37 W/m2 CLR
04:25 3.3 °C 2 °C 1018.2 hPa Calm     91% 0 mm WeatherDisplay:10.37 W/m2 CLR
04:30 3.4 °C 2.1 °C 1018.5 hPa Calm     91% 0 mm WeatherDisplay:10.37 W/m2 CLR
04:35 3.3 °C 1.8 °C 1018.5 hPa Calm     90% 0 mm WeatherDisplay:10.37 W/m2 CLR
04:46 3 °C 1.5 °C 1018.5 hPa Calm     90% 0 mm WeatherDisplay:10.37 W/m2 CLR
04:51 3 °C 1.5 °C 1018.5 hPa Calm     90% 0 mm WeatherDisplay:10.37 W/m2 CLR
04:55 2.9 °C 1.4 °C 1018.5 hPa Calm     90% 0 mm WeatherDisplay:10.37 W/m2 CLR
05:00 2.8 °C 1.3 °C 1018.5 hPa Calm     90% 0 mm WeatherDisplay:10.37 W/m2 CLR
05:05 2.8 °C 1.3 °C 1018.5 hPa Calm     90% 0 mm WeatherDisplay:10.37 W/m2 CLR
05:10 2.7 °C 1.2 °C 1018.5 hPa Calm     90% 0 mm WeatherDisplay:10.37 W/m2 CLR
05:15 2.7 °C 1.2 °C 1018.5 hPa Calm     90% 0 mm WeatherDisplay:10.37 W/m2 CLR
05:21 2.6 °C 1.1 °C 1018.5 hPa Calm     90% 0 mm WeatherDisplay:10.37 W/m2 CLR
05:26 2.6 °C 1.1 °C 1018.5 hPa Calm     90% 0 mm WeatherDisplay:10.37 W/m2 CLR
05:31 2.4 °C 0.9 °C 1018.5 hPa Calm     90% 0 mm WeatherDisplay:10.37 W/m2 CLR
05:35 2.4 °C 0.9 °C 1018.5 hPa Calm     90% 0 mm WeatherDisplay:10.37 W/m2 CLR
05:40 2.4 °C 1.1 °C 1018.5 hPa Calm     91% 0 mm WeatherDisplay:10.37 W/m2 CLR
05:45 2.4 °C 1.1 °C 1018.5 hPa Calm     91% 0 mm WeatherDisplay:10.37 W/m2 CLR
05:50 2.3 °C 1 °C 1018.5 hPa Calm     91% 0 mm WeatherDisplay:10.37 W/m2 CLR
05:55 2.4 °C 1.1 °C 1018.5 hPa Calm     91% 0 mm WeatherDisplay:10.37 W/m2 CLR
06:00 2.3 °C 0.9 °C 1018.5 hPa Calm     91% 0 mm WeatherDisplay:10.37 W/m2 CLR
06:05 2.3 °C 0.9 °C 1018.5 hPa Calm     91% 0 mm WeatherDisplay:10.37 W/m2 CLR
06:10 2.3 °C 0.9 °C 1018.5 hPa Calm     91% 0 mm WeatherDisplay:10.37 W/m2 CLR
06:15 2.3 °C 0.9 °C 1018.5 hPa Calm     91% 0 mm WeatherDisplay:10.37 W/m2 CLR
06:20 2.3 °C 0.9 °C 1018.5 hPa Calm     91% 0 mm WeatherDisplay:10.37 W/m2 CLR
06:25 2.3 °C 0.9 °C 1018.5 hPa Calm     91% 0 mm WeatherDisplay:10.37 W/m2 CLR
06:30 2.3 °C 1 °C 1018.5 hPa Calm     91% 0 mm WeatherDisplay:10.37 W/m2 CLR
06:36 2.4 °C 1.1 °C 1018.5 hPa Calm     91% 0 mm WeatherDisplay:10.37 W/m2 CLR
06:41 2.4 °C 1.1 °C 1018.5 hPa Calm     91% 0 mm WeatherDisplay:10.37 W/m2 CLR
06:46 2.4 °C 1.3 °C 1018.5 hPa Calm     92% 0 mm WeatherDisplay:10.37 W/m2 CLR
06:51 2.5 °C 1.3 °C 1018.5 hPa Calm     92% 0 mm WeatherDisplay:10.37 W/m2 CLR
06:56 2.4 °C 1.3 °C 1018.5 hPa Calm     92% 0 mm WeatherDisplay:10.37 W/m2 CLR
06:58 2.4 °C 1.1 °C 1018.5 hPa Calm     91% 0 mm WeatherDisplay:10.37 W/m2 CLR
07:03 2.4 °C 1.1 °C 1018.5 hPa Calm     91% 0 mm WeatherDisplay:10.37 W/m2 BKN
07:08 2.4 °C 1.1 °C 1018.5 hPa Calm     91% 0 mm WeatherDisplay:10.37 W/m2 BKN
07:13 2.4 °C 1.1 °C 1018.5 hPa Calm     91% 0 mm WeatherDisplay:10.37 W/m2 BKN
07:18 2.5 °C 1.3 °C 1018.5 hPa Calm     92% 0 mm WeatherDisplay:10.37 W/m2 BKN
07:23 2.5 °C 1.3 °C 1018.5 hPa Calm     92% 0 mm WeatherDisplay:10.37 W/m2 BKN
07:28 2.7 °C 1.5 °C 1018.8 hPa Calm     92% 0 mm WeatherDisplay:10.37 W/m2 BKN
07:33 2.8 °C 1.6 °C 1018.8 hPa Calm     92% 0 mm WeatherDisplay:10.37 W/m2 BKN
07:38 2.9 °C 1.7 °C 1018.8 hPa Calm     92% 0 mm WeatherDisplay:10.37 W/m2 BKN
07:43 2.9 °C 1.7 °C 1018.8 hPa Calm     92% 0 mm WeatherDisplay:10.37 W/m2 BKN
07:49 2.9 °C 1.7 °C 1018.8 hPa Calm     92% 0 mm WeatherDisplay:10.37 W/m2 BKN
07:54 2.9 °C 1.7 °C 1018.8 hPa Calm     92% 0 mm WeatherDisplay:10.37 W/m2 BKN
07:59 2.8 °C 1.7 °C 1018.8 hPa Calm     92% 0 mm WeatherDisplay:10.37 W/m2 BKN
08:04 2.8 °C 1.7 °C 1018.8 hPa Calm     92% 0 mm WeatherDisplay:10.37 W/m2 FEW
08:08 2.8 °C 1.7 °C 1018.8 hPa Calm     92% 0 mm WeatherDisplay:10.37 W/m2 FEW
08:13 2.9 °C 1.8 °C 1018.8 hPa Calm     92% 0 mm WeatherDisplay:10.37 W/m2 FEW
08:18 3.1 °C 1.9 °C 1019.2 hPa Calm     92% 0 mm WeatherDisplay:10.37 W/m2 FEW
08:23 3.2 °C 2 °C 1019.2 hPa Calm     92% 0 mm WeatherDisplay:10.37 W/m2 FEW
08:29 3.4 °C 2.2 °C 1019.2 hPa Calm     92% 0 mm WeatherDisplay:10.37 W/m2 FEW
08:34 3.8 °C 2.8 °C 1019.2 hPa Calm     93% 0 mm WeatherDisplay:10.37 W/m2 FEW
08:39 4.3 °C 3.1 °C 1018.8 hPa Calm     92% 0 mm WeatherDisplay:10.37 W/m2 FEW
08:44 4.8 °C 3.2 °C 1019.2 hPa Calm     89% 0 mm WeatherDisplay:10.37 W/m2 FEW
08:49 5.4 °C 3.4 °C 1018.8 hPa Calm     87% 0 mm WeatherDisplay:10.37 W/m2 FEW
08:54 5.9 °C 3.6 °C 1019.2 hPa Calm     85% 0 mm WeatherDisplay:10.37 W/m2 FEW
08:59 6.3 °C 3.7 °C 1019.2 hPa West 1.9 km/h   83% 0 mm WeatherDisplay:10.37 W/m2 FEW
09:04 6.7 °C 3.8 °C 1019.2 hPa West 1.9 km/h   82% 0 mm WeatherDisplay:10.37 W/m2 CLR
09:09 6.8 °C 3.8 °C 1019.2 hPa West 1.9 km/h 1.9 km/h 81% 0 mm WeatherDisplay:10.37 W/m2 CLR
09:14 7.1 °C 4 °C 1019.2 hPa West 1.9 km/h   81% 0 mm WeatherDisplay:10.37 W/m2 CLR
09:19 7.3 °C 4.2 °C 1019.2 hPa West 1.9 km/h   81% 0 mm WeatherDisplay:10.37 W/m2 CLR
09:25 7.5 °C 4.1 °C 1019.2 hPa Calm   1.6 km/h 79% 0 mm WeatherDisplay:10.37 W/m2 CLR
09:30 7.8 °C 4.2 °C 1019.2 hPa West 1.9 km/h   78% 0 mm WeatherDisplay:10.37 W/m2 CLR
09:35 8.1 °C 4.5 °C 1019.2 hPa West 1.9 km/h   78% 0 mm WeatherDisplay:10.37 W/m2 CLR
09:40 8.3 °C 4.5 °C 1019.2 hPa West 1.9 km/h   77% 0 mm WeatherDisplay:10.37 W/m2 CLR
09:45 8.7 °C 4.7 °C 1019.2 hPa West 1.9 km/h   76% 0 mm WeatherDisplay:10.37 W/m2 CLR
09:50 8.9 °C 4.6 °C 1019.2 hPa WNW 1.9 km/h   74% 0 mm WeatherDisplay:10.37 W/m2 CLR
09:55 9.3 °C 4.6 °C 1019.2 hPa WNW 1.9 km/h   72% 0 mm WeatherDisplay:10.37 W/m2 CLR
10:00 9.4 °C 4.2 °C 1019.2 hPa West 3.7 km/h 3.7 km/h 70% 0 mm WeatherDisplay:10.37 W/m2 CLR
10:05 9.5 °C 4.3 °C 1019.2 hPa West 3.7 km/h 3.7 km/h 70% 0 mm WeatherDisplay:10.37 W/m2 CLR
10:10 9.9 °C 4.4 °C 1019.2 hPa WNW 3.7 km/h   69% 0 mm WeatherDisplay:10.37 W/m2 CLR
10:15 10.7 °C 5 °C 1018.8 hPa WNW 1.9 km/h   68% 0 mm WeatherDisplay:10.37 W/m2 CLR
10:21 10.9 °C 4.3 °C 1018.8 hPa WNW 1.9 km/h   64% 0 mm WeatherDisplay:10.37 W/m2 CLR
10:26 11.4 °C 5.1 °C 1018.8 hPa WNW 1.9 km/h   65% 0 mm WeatherDisplay:10.37 W/m2 CLR
10:31 11.5 °C 4.7 °C 1018.8 hPa West 3.7 km/h   63% 0 mm WeatherDisplay:10.37 W/m2 CLR
10:36 11.8 °C 4.7 °C 1018.8 hPa West 3.7 km/h   62% 0 mm WeatherDisplay:10.37 W/m2 CLR
10:41 12.1 °C 4.3 °C 1018.8 hPa WNW 1.9 km/h   59% 0 mm WeatherDisplay:10.37 W/m2 CLR
10:46 12.2 °C 4.7 °C 1018.8 hPa WNW 1.9 km/h 1.9 km/h 60% 0 mm WeatherDisplay:10.37 W/m2 CLR
10:51 12.6 °C 4.1 °C 1018.8 hPa WNW 1.9 km/h   56% 0 mm WeatherDisplay:10.37 W/m2 CLR
10:56 12.8 °C 4.3 °C 1018.8 hPa NW 1.9 km/h   56% 0 mm WeatherDisplay:10.37 W/m2 CLR
11:01 12.8 °C 4.2 °C 1018.8 hPa WNW 1.9 km/h   56% 0 mm WeatherDisplay:10.37 W/m2 CLR
11:06 12.8 °C 4.3 °C 1018.5 hPa WNW 1.9 km/h   56% 0 mm WeatherDisplay:10.37 W/m2 CLR
11:11 13.1 °C 4.4 °C 1018.5 hPa WNW 1.9 km/h   56% 0 mm WeatherDisplay:10.37 W/m2 CLR
11:16 12.9 °C 3.6 °C 1018.5 hPa West 1.9 km/h 1.9 km/h 53% 0 mm WeatherDisplay:10.37 W/m2 CLR
11:21 12.9 °C 3.8 °C 1018.5 hPa WSW 3.7 km/h 3.7 km/h 54% 0 mm WeatherDisplay:10.37 W/m2 CLR
11:26 12.8 °C 3.7 °C 1018.2 hPa West 3.7 km/h   54% 0 mm WeatherDisplay:10.37 W/m2 CLR
11:31 13.1 °C 4.2 °C 1018.2 hPa WNW 3.7 km/h 3.7 km/h 55% 0 mm WeatherDisplay:10.37 W/m2 CLR
11:34 13.1 °C 3.7 °C 1018.2 hPa Calm   3.2 km/h 53% 0 mm WeatherDisplay:10.37 W/m2
11:37 13 °C 3.9 °C 1018.2 hPa WNW 3.7 km/h   54% 0 mm WeatherDisplay:10.37 W/m2 CLR
11:42 13.2 °C 4.3 °C 1018.2 hPa NW 3.7 km/h 3.7 km/h 55% 0 mm WeatherDisplay:10.37 W/m2 CLR
11:47 13.5 °C 4.9 °C 1018.2 hPa WNW 1.9 km/h   56% 0 mm WeatherDisplay:10.37 W/m2 CLR
11:52 13.8 °C 4.3 °C 1018.2 hPa West 1.9 km/h 1.9 km/h 53% 0 mm WeatherDisplay:10.37 W/m2 CLR
11:57 13.8 °C 4.9 °C 1017.8 hPa NNW 1.9 km/h   55% 0 mm WeatherDisplay:10.37 W/m2 CLR
12:02 13.9 °C 4.7 °C 1017.8 hPa North 1.9 km/h   54% 0 mm WeatherDisplay:10.37 W/m2 CLR
12:07 13.9 °C 5 °C 1017.8 hPa NNE 3.7 km/h   55% 0 mm WeatherDisplay:10.37 W/m2 CLR
12:12 14 °C 5.3 °C 1017.8 hPa NNE 3.7 km/h 3.7 km/h 56% 0 mm WeatherDisplay:10.37 W/m2 CLR
12:17 14.1 °C 4.9 °C 1017.5 hPa NW 3.7 km/h   54% 0 mm WeatherDisplay:10.37 W/m2 CLR
12:22 14.3 °C 5.7 °C 1017.5 hPa WNW 1.9 km/h   56% 0 mm WeatherDisplay:10.37 W/m2 CLR
12:28 14.6 °C 5.6 °C 1017.5 hPa West 1.9 km/h   55% 0 mm WeatherDisplay:10.37 W/m2 CLR
12:38 15.1 °C 5.3 °C 1017.2 hPa West 3.7 km/h 3.7 km/h 52% 0 mm WeatherDisplay:10.37 W/m2 CLR
12:43 15 °C 5.2 °C 1016.8 hPa SW 3.7 km/h 3.7 km/h 52% 0 mm WeatherDisplay:10.37 W/m2 CLR
12:48 15.1 °C 5.3 °C 1016.8 hPa WSW 3.7 km/h 3.7 km/h 52% 0 mm WeatherDisplay:10.37 W/m2 CLR
12:53 15.2 °C 5.9 °C 1016.8 hPa North 1.9 km/h   54% 0 mm WeatherDisplay:10.37 W/m2 CLR
12:58 15.4 °C 5.6 °C 1016.5 hPa NNW 3.7 km/h   52% 0 mm WeatherDisplay:10.37 W/m2 CLR
13:03 15.6 °C 5.8 °C 1016.5 hPa NNE 3.7 km/h 3.7 km/h 52% 0 mm WeatherDisplay:10.37 W/m2 CLR
13:08 15.8 °C 6 °C 1016.5 hPa NNE 1.9 km/h   52% 0 mm WeatherDisplay:10.37 W/m2 CLR
13:13 15.9 °C 5.4 °C 1016.5 hPa North 1.9 km/h 1.9 km/h 50% 0 mm WeatherDisplay:10.37 W/m2 CLR
13:18 15.9 °C 5.4 °C 1016.1 hPa ESE 1.9 km/h   50% 0 mm WeatherDisplay:10.37 W/m2 CLR
13:23 15.9 °C 5.8 °C 1016.1 hPa South 1.9 km/h   51% 0 mm WeatherDisplay:10.37 W/m2 CLR
13:28 15.9 °C 6.1 °C 1016.1 hPa NW 3.7 km/h 3.7 km/h 52% 0 mm WeatherDisplay:10.37 W/m2 CLR
13:34 15.9 °C 5.8 °C 1016.1 hPa NNW 3.7 km/h 3.7 km/h 51% 0 mm WeatherDisplay:10.37 W/m2 CLR
13:39 15.8 °C 5.7 °C 1016.1 hPa NNE 3.7 km/h 3.7 km/h 51% 0 mm WeatherDisplay:10.37 W/m2 CLR
13:44 15.8 °C 6 °C 1015.8 hPa ENE 3.7 km/h 3.7 km/h 52% 0 mm WeatherDisplay:10.37 W/m2 CLR
13:49 15.8 °C 5.4 °C 1015.8 hPa WNW 3.7 km/h 3.7 km/h 50% 0 mm WeatherDisplay:10.37 W/m2 CLR
13:54 15.7 °C 5.3 °C 1015.8 hPa WNW 3.7 km/h   50% 0 mm WeatherDisplay:10.37 W/m2 CLR
13:59 15.8 °C 6.5 °C 1015.8 hPa WNW 3.7 km/h   54% 0 mm WeatherDisplay:10.37 W/m2 CLR
14:04 15.8 °C 4.8 °C 1015.8 hPa WNW 5.6 km/h 5.6 km/h 48% 0 mm WeatherDisplay:10.37 W/m2 CLR
14:09 15.8 °C 4.6 °C 1015.8 hPa NNE 5.6 km/h   47% 0 mm WeatherDisplay:10.37 W/m2 CLR
14:14 15.8 °C 4.5 °C 1015.8 hPa NNE 1.9 km/h   47% 0 mm WeatherDisplay:10.37 W/m2 CLR
14:19 15.8 °C 5.1 °C 1015.8 hPa North 1.9 km/h 1.9 km/h 49% 0 mm WeatherDisplay:10.37 W/m2 CLR
14:24 15.8 °C 5.4 °C 1015.5 hPa West 1.9 km/h   50% 0 mm WeatherDisplay:10.37 W/m2 CLR
14:29 15.8 °C 5.1 °C 1015.5 hPa West 1.9 km/h   49% 0 mm WeatherDisplay:10.37 W/m2 CLR
14:34 16.1 °C 5.3 °C 1015.5 hPa West 1.9 km/h 1.9 km/h 49% 0 mm WeatherDisplay:10.37 W/m2 CLR
14:39 16.3 °C 5.6 °C 1015.5 hPa SE 1.9 km/h 1.9 km/h 49% 0 mm WeatherDisplay:10.37 W/m2 CLR
14:44 16.3 °C 5 °C 1015.5 hPa SE 1.9 km/h 1.9 km/h 47% 0 mm WeatherDisplay:10.37 W/m2 CLR
14:50 16.3 °C 5.6 °C 1015.5 hPa East 1.9 km/h 1.9 km/h 49% 0 mm WeatherDisplay:10.37 W/m2 CLR
14:55 16.3 °C 5.6 °C 1015.5 hPa Calm   1.6 km/h 49% 0 mm WeatherDisplay:10.37 W/m2 CLR
15:00 16.6 °C 5.8 °C 1015.5 hPa WNW 1.9 km/h 1.9 km/h 49% 0 mm WeatherDisplay:10.37 W/m2 CLR
15:05 16.8 °C 5.4 °C 1015.1 hPa NW 1.9 km/h   47% 0 mm WeatherDisplay:10.37 W/m2 CLR
15:10 16.7 °C 5.9 °C 1015.1 hPa North 1.9 km/h   49% 0 mm WeatherDisplay:10.37 W/m2 CLR
15:15 16.6 °C 5.2 °C 1015.1 hPa North 1.9 km/h   47% 0 mm WeatherDisplay:10.37 W/m2 CLR
15:20 16.4 °C 5.1 °C 1015.1 hPa NNW 1.9 km/h 1.9 km/h 47% 0 mm WeatherDisplay:10.37 W/m2 CLR
15:25 16.4 °C 6 °C 1015.1 hPa WNW 1.9 km/h 1.9 km/h 50% 0 mm WeatherDisplay:10.37 W/m2 CLR
15:30 16.3 °C 5.9 °C 1015.1 hPa WNW 1.9 km/h   50% 0 mm WeatherDisplay:10.37 W/m2 CLR
15:35 16.3 °C 5.2 °C 1015.1 hPa West 3.7 km/h   48% 0 mm WeatherDisplay:10.37 W/m2 CLR
15:40 16.2 °C 5.7 °C 1015.1 hPa SW 3.7 km/h   50% 0 mm WeatherDisplay:10.37 W/m2 CLR
15:45 16.1 °C 5.1 °C 1015.1 hPa SW 1.9 km/h 1.9 km/h 48% 0 mm WeatherDisplay:10.37 W/m2 CLR
15:51 15.9 °C 5.8 °C 1015.1 hPa South 1.9 km/h   51% 0 mm WeatherDisplay:10.37 W/m2 CLR
15:56 15.8 °C 5.4 °C 1015.1 hPa SSE 1.9 km/h   50% 0 mm WeatherDisplay:10.37 W/m2 CLR
16:01 15.7 °C 5.3 °C 1015.1 hPa Calm     50% 0 mm WeatherDisplay:10.37 W/m2 CLR
16:06 15.6 °C 5.4 °C 1015.1 hPa WSW 1.9 km/h   51% 0 mm WeatherDisplay:10.37 W/m2 FEW
16:11 15.4 °C 5.3 °C 1015.1 hPa WNW 1.9 km/h   51% 0 mm WeatherDisplay:10.37 W/m2 FEW
16:16 15.2 °C 5.2 °C 1015.1 hPa Calm     51% 0 mm WeatherDisplay:10.37 W/m2 FEW
16:21 15.1 °C 5.6 °C 1015.1 hPa Calm     53% 0 mm WeatherDisplay:10.37 W/m2 FEW
16:26 14.9 °C 5.7 °C 1015.1 hPa NW 1.9 km/h   54% 0 mm WeatherDisplay:10.37 W/m2 FEW
16:31 14.8 °C 5.3 °C 1015.1 hPa NNW 1.9 km/h 1.9 km/h 53% 0 mm WeatherDisplay:10.37 W/m2 FEW
16:36 14.7 °C 5.4 °C 1015.1 hPa NNE 1.9 km/h   54% 0 mm WeatherDisplay:10.37 W/m2 FEW
16:41 14.5 °C 5.6 °C 1015.1 hPa NE 1.9 km/h   55% 0 mm WeatherDisplay:10.37 W/m2 FEW
16:46 14.4 °C 5.4 °C 1015.5 hPa NE 1.9 km/h   55% 0 mm WeatherDisplay:10.37 W/m2 FEW
16:52 14.3 °C 5.3 °C 1015.5 hPa NE 1.9 km/h   55% 0 mm WeatherDisplay:10.37 W/m2 FEW
16:57 14.2 °C 5.5 °C 1015.5 hPa Calm     56% 0 mm WeatherDisplay:10.37 W/m2 FEW
17:02 14 °C 5.3 °C 1015.5 hPa Calm     56% 0 mm WeatherDisplay:10.37 W/m2 FEW
17:07 13.8 °C 5.2 °C 1015.5 hPa Calm     56% 0 mm WeatherDisplay:10.37 W/m2 FEW
17:12 13.7 °C 5.1 °C 1015.5 hPa Calm     56% 0 mm WeatherDisplay:10.37 W/m2 FEW
17:17 13.6 °C 5.2 °C 1015.5 hPa Calm     57% 0 mm WeatherDisplay:10.37 W/m2 FEW
17:22 13.4 °C 5.1 °C 1015.5 hPa Calm     57% 0 mm WeatherDisplay:10.37 W/m2 FEW
17:27 13.1 °C 5 °C 1015.5 hPa Calm     58% 0 mm WeatherDisplay:10.37 W/m2 FEW
17:32 12.8 °C 5 °C 1015.5 hPa Calm     59% 0 mm WeatherDisplay:10.37 W/m2 FEW
17:37 12.6 °C 5 °C 1015.5 hPa Calm     60% 0 mm WeatherDisplay:10.37 W/m2 FEW
17:42 12.3 °C 5 °C 1015.5 hPa Calm     61% 0 mm WeatherDisplay:10.37 W/m2 FEW
17:48 12.1 °C 4.8 °C 1015.5 hPa Calm     61% 0 mm WeatherDisplay:10.37 W/m2 FEW
17:53 11.9 °C 5.1 °C 1015.8 hPa Calm     63% 0 mm WeatherDisplay:10.37 W/m2 FEW
17:58 11.6 °C 5.2 °C 1015.8 hPa Calm     65% 0 mm WeatherDisplay:10.37 W/m2 FEW
18:03 11.4 °C 5.1 °C 1015.8 hPa Calm     65% 0 mm WeatherDisplay:10.37 W/m2 FEW
18:08 11.2 °C 5.3 °C 1015.8 hPa Calm     67% 0 mm WeatherDisplay:10.37 W/m2 FEW
18:13 10.9 °C 5.2 °C 1015.8 hPa Calm     68% 0 mm WeatherDisplay:10.37 W/m2 FEW
18:19 10.8 °C 5.3 °C 1015.8 hPa Calm     69% 0 mm WeatherDisplay:10.37 W/m2 FEW
18:24 10.7 °C 5.3 °C 1015.8 hPa Calm     69% 0 mm WeatherDisplay:10.37 W/m2 FEW
18:29 10.6 °C 5.2 °C 1015.8 hPa Calm     69% 0 mm WeatherDisplay:10.37 W/m2 FEW
18:34 10.3 °C 5.3 °C 1015.8 hPa Calm     71% 0 mm WeatherDisplay:10.37 W/m2 FEW
18:39 10.1 °C 5.3 °C 1015.8 hPa Calm     72% 0 mm WeatherDisplay:10.37 W/m2 FEW
18:45 10.1 °C 5.4 °C 1015.8 hPa Calm     73% 0 mm WeatherDisplay:10.37 W/m2 FEW
18:50 9.9 °C 5.3 °C 1015.8 hPa Calm     73% 0 mm WeatherDisplay:10.37 W/m2 FEW
18:55 9.8 °C 5.2 °C 1015.8 hPa Calm     73% 0 mm WeatherDisplay:10.37 W/m2 FEW
19:00 9.6 °C 5.2 °C 1015.8 hPa Calm     74% 0 mm WeatherDisplay:10.37 W/m2 FEW
19:05 9.4 °C 5.2 °C 1015.8 hPa Calm     75% 0 mm WeatherDisplay:10.37 W/m2 CLR
19:10 9.3 °C 5.1 °C 1015.8 hPa Calm     75% 0 mm WeatherDisplay:10.37 W/m2 CLR
19:15 9.1 °C 5.3 °C 1015.8 hPa Calm     77% 0 mm WeatherDisplay:10.37 W/m2 CLR
19:20 9 °C 5.4 °C 1015.8 hPa Calm     78% 0 mm WeatherDisplay:10.37 W/m2 CLR
19:25 8.8 °C 5.2 °C 1015.8 hPa Calm     78% 0 mm WeatherDisplay:10.37 W/m2 CLR
19:31 8.7 °C 5.3 °C 1016.1 hPa Calm     79% 0 mm WeatherDisplay:10.37 W/m2 CLR
19:36 8.7 °C 5.2 °C 1016.1 hPa Calm     79% 0 mm WeatherDisplay:10.37 W/m2 CLR
19:41 8.7 °C 5.2 °C 1016.1 hPa Calm     79% 0 mm WeatherDisplay:10.37 W/m2 CLR
19:46 8.6 °C 5.3 °C 1016.1 hPa Calm     80% 0 mm WeatherDisplay:10.37 W/m2 CLR
19:56 8.3 °C 5.1 °C 1016.1 hPa Calm     80% 0 mm WeatherDisplay:10.37 W/m2 CLR
20:01 8.2 °C 5.2 °C 1016.1 hPa Calm     81% 0 mm WeatherDisplay:10.37 W/m2 CLR
20:06 8.2 °C 5.2 °C 1016.1 hPa Calm     81% 0 mm WeatherDisplay:10.37 W/m2 CLR
20:11 8.2 °C 5.1 °C 1016.1 hPa Calm     81% 0 mm WeatherDisplay:10.37 W/m2 CLR
20:16 8.1 °C 5 °C 1016.1 hPa Calm     81% 0 mm WeatherDisplay:10.37 W/m2 CLR
20:21 8 °C 5.1 °C 1016.1 hPa Calm     82% 0 mm WeatherDisplay:10.37 W/m2 CLR
20:24 7.9 °C 5.1 °C 1016.1 hPa Calm     82% 0 mm WeatherDisplay:10.37 W/m2 CLR
20:29 7.8 °C 4.9 °C 1016.1 hPa Calm     82% 0 mm WeatherDisplay:10.37 W/m2 CLR
20:35 7.8 °C 4.9 °C 1016.1 hPa Calm     82% 0 mm WeatherDisplay:10.37 W/m2 CLR
20:37 7.8 °C 5.1 °C 1016.1 hPa Calm     83% 0 mm WeatherDisplay:10.37 W/m2 CLR
20:42 8 °C 5.3 °C 1016.5 hPa Calm     83% 0 mm WeatherDisplay:10.37 W/m2 CLR
20:47 8 °C 5.3 °C 1016.5 hPa Calm     83% 0 mm WeatherDisplay:10.37 W/m2 CLR
20:52 7.9 °C 5.1 °C 1016.5 hPa Calm     82% 0 mm WeatherDisplay:10.37 W/m2 CLR
20:58 7.8 °C 4.9 °C 1016.5 hPa Calm     82% 0 mm WeatherDisplay:10.37 W/m2 CLR
21:03 7.6 °C 4.9 °C 1016.5 hPa Calm     83% 0 mm WeatherDisplay:10.37 W/m2 CLR
21:08 7.5 °C 4.8 °C 1016.5 hPa Calm     83% 0 mm WeatherDisplay:10.37 W/m2 CLR
21:13 7.5 °C 4.9 °C 1016.5 hPa Calm     84% 0 mm WeatherDisplay:10.37 W/m2 CLR
21:18 7.7 °C 5.3 °C 1016.5 hPa Calm     85% 0 mm WeatherDisplay:10.37 W/m2 CLR
21:23 7.8 °C 5.1 °C 1016.5 hPa Calm     83% 0 mm WeatherDisplay:10.37 W/m2 CLR
21:28 7.6 °C 4.9 °C 1016.5 hPa Calm     83% 0 mm WeatherDisplay:10.37 W/m2 CLR
21:33 7.5 °C 4.8 °C 1016.5 hPa Calm     83% 0 mm WeatherDisplay:10.37 W/m2 CLR
21:38 7.3 °C 4.8 °C 1016.5 hPa Calm     84% 0 mm WeatherDisplay:10.37 W/m2 CLR
21:43 7.3 °C 4.9 °C 1016.5 hPa Calm     85% 0 mm WeatherDisplay:10.37 W/m2 CLR
21:48 7.4 °C 5.1 °C 1016.8 hPa Calm     85% 0 mm WeatherDisplay:10.37 W/m2 CLR
21:53 7.3 °C 4.8 °C 1016.8 hPa Calm     84% 0 mm WeatherDisplay:10.37 W/m2 CLR
21:58 7.2 °C 4.7 °C 1016.8 hPa Calm     84% 0 mm WeatherDisplay:10.37 W/m2 CLR
22:03 7 °C 4.7 °C 1016.8 hPa Calm     85% 0 mm WeatherDisplay:10.37 W/m2 FEW
22:09 6.9 °C 4.6 °C 1016.8 hPa Calm     85% 0 mm WeatherDisplay:10.37 W/m2 FEW
22:14 6.8 °C 4.4 °C 1016.8 hPa Calm     85% 0 mm WeatherDisplay:10.37 W/m2 FEW
22:19 6.7 °C 4.5 °C 1016.8 hPa Calm     86% 0 mm WeatherDisplay:10.37 W/m2 FEW
22:21 6.7 °C 4.5 °C 1016.8 hPa Calm     86% 0 mm WeatherDisplay:10.37 W/m2 FEW
22:25 6.6 °C 4.6 °C 1016.8 hPa Calm     87% 0 mm WeatherDisplay:10.37 W/m2 FEW
22:29 6.6 °C 4.6 °C 1016.8 hPa Calm     87% 0 mm WeatherDisplay:10.37 W/m2 FEW
22:34 6.4 °C 4.4 °C 1016.8 hPa Calm     87% 0 mm WeatherDisplay:10.37 W/m2 FEW
22:39 6.3 °C 4.3 °C 1016.8 hPa Calm     87% 0 mm WeatherDisplay:10.37 W/m2 FEW
22:44 6.4 °C 4.6 °C 1016.8 hPa Calm     88% 0 mm WeatherDisplay:10.37 W/m2 FEW
22:49 6.4 °C 4.4 °C 1016.8 hPa Calm     87% 0 mm WeatherDisplay:10.37 W/m2 FEW
22:54 6.4 °C 4.4 °C 1016.8 hPa Calm     87% 0 mm WeatherDisplay:10.37 W/m2 FEW
22:59 6.3 °C 4.3 °C 1016.8 hPa Calm     87% 0 mm WeatherDisplay:10.37 W/m2 FEW
23:04 6.2 °C 4.2 °C 1016.8 hPa Calm     87% 0 mm WeatherDisplay:10.37 W/m2 FEW
23:09 6.1 °C 4.2 °C 1016.8 hPa Calm     88% 0 mm WeatherDisplay:10.37 W/m2 FEW
23:14 6 °C 4.2 °C 1016.8 hPa Calm     88% 0 mm WeatherDisplay:10.37 W/m2 FEW
23:19 5.9 °C 4.1 °C 1016.8 hPa Calm     88% 0 mm WeatherDisplay:10.37 W/m2 FEW
23:24 5.8 °C 4 °C 1016.8 hPa Calm     88% 0 mm WeatherDisplay:10.37 W/m2 FEW
23:29 5.8 °C 3.9 °C 1016.8 hPa Calm     88% 0 mm WeatherDisplay:10.37 W/m2 FEW
23:35 5.7 °C 3.9 °C 1016.8 hPa Calm     88% 0 mm WeatherDisplay:10.37 W/m2 FEW
23:40 5.7 °C 3.8 °C 1016.8 hPa Calm     88% 0 mm WeatherDisplay:10.37 W/m2 FEW
23:45 5.6 °C 3.9 °C 1016.8 hPa Calm     89% 0 mm WeatherDisplay:10.37 W/m2 FEW
23:50 5.6 °C 3.9 °C 1016.5 hPa Calm     89% 0 mm WeatherDisplay:10.37 W/m2 FEW
23:55 5.6 °C 3.9 °C 1016.5 hPa Calm     89% 0 mm WeatherDisplay:10.37 W/m2 FEW
Piedmont Bend
Compliments of Weather Underground - 4 mb